Time;durP1;ratioP1;P1;durP2;ratioP2;P2;SDS_P1;SDS_P2;PMS_P1;PMS_P2;Temp;Humidity;BMP_temperature;BMP_pressure;BME280_temperature;BME280_humidity;BME280_pressure;Samples;Min_cycle;Max_cycle;Signal;HPM_P1;HPM_P2
2024/04/19 00:00:55;;;;;;;;;;;;;;;;;;5465227;25;19936;-65
2024/04/19 00:03:20;;;;;;;;;;;;;;;;;;5436390;26;19965;-66
2024/04/19 00:05:45;;;;;;;;;;;;;;;;;;5433878;26;19935;-65
2024/04/19 00:08:10;;;;;;;;;;;;;;;;;;5441541;26;19936;-65
2024/04/19 00:10:35;;;;;;;;;;;;;;;;;;5445639;26;20606;-65
2024/04/19 00:13:00;;;;;;;;;;;;;;;;;;5460637;26;19928;-65
2024/04/19 00:15:25;;;;;;;;;;;;;;;;;;5482169;25;19935;-65
2024/04/19 00:17:50;;;;;;;;;;;;;;;;;;5482344;25;19935;-65
2024/04/19 00:20:17;;;;;;;;;;;;;;;;;;5484724;25;19936;-65
2024/04/19 00:22:42;;;;;;;;;;;;;;;;;;5482347;25;20439;-65
2024/04/19 00:25:07;;;;;;;;;;;;;;;;;;5482064;25;19928;-65
2024/04/19 00:27:32;;;;;;;;;;;;;;;;;;5481921;25;19940;-65
2024/04/19 00:29:57;;;;;;;;;;;;;;;;;;5481941;25;19936;-65
2024/04/19 00:32:22;;;;;;;;;;;;;;;;;;5481359;25;19996;-65
2024/04/19 00:34:47;;;;;;;;;;;;;;;;;;5481835;25;20560;-65
2024/04/19 00:37:12;;;;;;;;;;;;;;;;;;5494722;25;19928;-65
2024/04/19 00:39:37;;;;;;;;;;;;;;;;;;5482119;25;20384;-65
2024/04/19 00:42:02;;;;;;;;;;;;;;;;;;5481294;25;19935;-65
2024/04/19 00:44:28;;;;;;;;;;;;;;;;;;5481669;25;19936;-65
2024/04/19 00:46:53;;;;;;;;;;;;;;;;;;5481471;25;20379;-65
2024/04/19 00:49:18;;;;;;;;;;;;;;;;;;5462462;25;19957;-65
2024/04/19 00:51:43;;;;;;;;;;;;;;;;;;5445258;26;20352;-65
2024/04/19 00:54:08;;;;;;;;;;;;;;;;;;5444182;26;20543;-66
2024/04/19 00:56:33;;;;;;;;;;;;;;;;;;5445093;26;19998;-65
2024/04/19 00:58:58;;;;;;;;;;;;;;;;;;5445027;26;19940;-65
2024/04/19 01:01:23;;;;;;;;;;;;;;;;;;5445428;26;19934;-65
2024/04/19 01:03:48;;;;;;;;;;;;;;;;;;5444990;26;19933;-65
2024/04/19 01:06:13;;;;;;;;;;;;;;;;;;5446233;26;19932;-65
2024/04/19 01:08:38;;;;;;;;;;;;;;;;;;5481586;25;20375;-65
2024/04/19 01:11:03;;;;;;;;;;;;;;;;;;5480221;25;19928;-65
2024/04/19 01:13:29;;;;;;;;;;;;;;;;;;5481497;25;19940;-65
2024/04/19 01:15:54;;;;;;;;;;;;;;;;;;5481296;25;19996;-65
2024/04/19 01:18:19;;;;;;;;;;;;;;;;;;5476853;25;20029;-65
2024/04/19 01:20:44;;;;;;;;;;;;;;;;;;5447622;26;19955;-65
2024/04/19 01:23:09;;;;;;;;;;;;;;;;;;5443749;26;19939;-65
2024/04/19 01:25:34;;;;;;;;;;;;;;;;;;5444887;26;20277;-65
2024/04/19 01:27:59;;;;;;;;;;;;;;;;;;5473019;26;19935;-65
2024/04/19 01:30:24;;;;;;;;;;;;;;;;;;5480699;25;19996;-65
2024/04/19 01:32:49;;;;;;;;;;;;;;;;;;5481033;25;19928;-65
2024/04/19 01:35:14;;;;;;;;;;;;;;;;;;5480921;25;19927;-65
2024/04/19 01:37:39;;;;;;;;;;;;;;;;;;5480524;25;20385;-66
2024/04/19 01:40:05;;;;;;;;;;;;;;;;;;5480348;25;20395;-66
2024/04/19 01:42:30;;;;;;;;;;;;;;;;;;5474302;25;19936;-66
2024/04/19 01:44:56;;;;;;;;;;;;;;;;;;5444761;26;20218;-67
2024/04/19 01:47:21;;;;;;;;;;;;;;;;;;5444385;26;20555;-66
2024/04/19 01:49:46;;;;;;;;;;;;;;;;;;5444534;26;19935;-66
2024/04/19 01:52:11;;;;;;;;;;;;;;;;;;5443263;26;19929;-67
2024/04/19 01:54:36;;;;;;;;;;;;;;;;;;5446924;26;19933;-66
2024/04/19 01:57:02;;;;;;;;;;;;;;;;;;5444231;26;19928;-67
2024/04/19 01:59:28;;;;;;;;;;;;;;;;;;5442159;26;20419;-67
2024/04/19 02:01:53;;;;;;;;;;;;;;;;;;5444487;26;19964;-66
2024/04/19 02:04:18;;;;;;;;;;;;;;;;;;5443736;26;19928;-67
2024/04/19 02:06:43;;;;;;;;;;;;;;;;;;5443352;26;20479;-66
2024/04/19 02:09:08;;;;;;;;;;;;;;;;;;5441825;26;19936;-66
2024/04/19 02:11:33;;;;;;;;;;;;;;;;;;5443422;26;19935;-66
2024/04/19 02:13:58;;;;;;;;;;;;;;;;;;5444642;26;19944;-65
2024/04/19 02:16:23;;;;;;;;;;;;;;;;;;5477721;25;19934;-65
2024/04/19 02:18:49;;;;;;;;;;;;;;;;;;5480590;25;19964;-65
2024/04/19 02:21:14;;;;;;;;;;;;;;;;;;5481565;25;19928;-65
2024/04/19 02:23:39;;;;;;;;;;;;;;;;;;5479895;25;19934;-65
2024/04/19 02:26:04;;;;;;;;;;;;;;;;;;5479337;26;19928;-65
2024/04/19 02:31:13;;;;;;;;;;;;;;;;;;5478715;25;20000;-65
2024/04/19 02:33:38;;;;;;;;;;;;;;;;;;5480226;25;19952;-65
2024/04/19 02:36:03;;;;;;;;;;;;;;;;;;5479601;25;20373;-66
2024/04/19 02:38:28;;;;;;;;;;;;;;;;;;5479086;25;19935;-65
2024/04/19 02:40:53;;;;;;;;;;;;;;;;;;5478603;25;19934;-65
2024/04/19 02:43:18;;;;;;;;;;;;;;;;;;5480095;25;19935;-65
2024/04/19 02:45:43;;;;;;;;;;;;;;;;;;5480478;25;19928;-65
2024/04/19 02:48:08;;;;;;;;;;;;;;;;;;5478037;25;20460;-65
2024/04/19 02:50:34;;;;;;;;;;;;;;;;;;5473192;25;19940;-65
2024/04/19 02:52:59;;;;;;;;;;;;;;;;;;5479106;25;20257;-65
2024/04/19 02:55:24;;;;;;;;;;;;;;;;;;5458242;25;20417;-65
2024/04/19 02:57:49;;;;;;;;;;;;;;;;;;5470778;26;19995;-65
2024/04/19 03:00:14;;;;;;;;;;;;;;;;;;5477935;25;19928;-65
2024/04/19 03:02:39;;;;;;;;;;;;;;;;;;5479231;25;19997;-64
2024/04/19 03:05:04;;;;;;;;;;;;;;;;;;5476437;26;19936;-65
2024/04/19 03:07:29;;;;;;;;;;;;;;;;;;5458693;25;20273;-65
2024/04/19 03:09:54;;;;;;;;;;;;;;;;;;5472491;25;19978;-65
2024/04/19 03:12:19;;;;;;;;;;;;;;;;;;5440813;26;19937;-65
2024/04/19 03:14:44;;;;;;;;;;;;;;;;;;5451928;26;19935;-65
2024/04/19 03:17:10;;;;;;;;;;;;;;;;;;5476535;26;19928;-65
2024/04/19 03:19:35;;;;;;;;;;;;;;;;;;5479714;25;20476;-65
2024/04/19 03:22:00;;;;;;;;;;;;;;;;;;5486378;25;19935;-64
2024/04/19 03:24:25;;;;;;;;;;;;;;;;;;5470043;25;19936;-64
2024/04/19 03:26:50;;;;;;;;;;;;;;;;;;5454539;26;19928;-64
2024/04/19 03:29:15;;;;;;;;;;;;;;;;;;5479654;25;20369;-64
2024/04/19 03:31:40;;;;;;;;;;;;;;;;;;5460511;25;20361;-64
2024/04/19 03:34:05;;;;;;;;;;;;;;;;;;5478862;25;19936;-65
2024/04/19 03:36:30;;;;;;;;;;;;;;;;;;5481394;26;20004;-64
2024/04/19 03:38:56;;;;;;;;;;;;;;;;;;5479815;25;19997;-64
2024/04/19 03:41:21;;;;;;;;;;;;;;;;;;5475179;26;20291;-64
2024/04/19 03:45:40;;;;;;;;;;;;;;;;;;5456847;25;19928;-64
2024/04/19 03:46:31;;;;;;;;;;;;;;;;;;5486427;26;19935;-65
2024/04/19 03:48:56;;;;;;;;;;;;;;;;;;5472834;25;19997;-65
2024/04/19 03:51:21;;;;;;;;;;;;;;;;;;5479848;25;20272;-65
2024/04/19 03:53:46;;;;;;;;;;;;;;;;;;5482955;26;20321;-65
2024/04/19 03:56:11;;;;;;;;;;;;;;;;;;5480173;25;19936;-63
2024/04/19 03:58:36;;;;;;;;;;;;;;;;;;5466672;26;19928;-64
2024/04/19 04:01:01;;;;;;;;;;;;;;;;;;5481450;25;19928;-64
2024/04/19 04:03:27;;;;;;;;;;;;;;;;;;5482067;25;19940;-65
2024/04/19 04:05:52;;;;;;;;;;;;;;;;;;5482385;25;20393;-64
2024/04/19 04:08:17;;;;;;;;;;;;;;;;;;5482684;25;19928;-63
2024/04/19 04:10:42;;;;;;;;;;;;;;;;;;5475433;25;19984;-64
2024/04/19 04:13:07;;;;;;;;;;;;;;;;;;5474641;25;19928;-65
2024/04/19 04:15:32;;;;;;;;;;;;;;;;;;5482478;26;20594;-65
2024/04/19 04:17:58;;;;;;;;;;;;;;;;;;5452578;26;19929;-65
2024/04/19 04:20:23;;;;;;;;;;;;;;;;;;5474740;25;19939;-65
2024/04/19 04:22:48;;;;;;;;;;;;;;;;;;5455130;26;20001;-65
2024/04/19 04:25:13;;;;;;;;;;;;;;;;;;5481479;26;19994;-64
2024/04/19 04:27:38;;;;;;;;;;;;;;;;;;5460257;26;20486;-64
2024/04/19 04:30:03;;;;;;;;;;;;;;;;;;5446111;26;19944;-64
2024/04/19 04:32:29;;;;;;;;;;;;;;;;;;5422167;25;19929;-64
2024/04/19 04:34:54;;;;;;;;;;;;;;;;;;5433175;26;19929;-64
2024/04/19 04:37:20;;;;;;;;;;;;;;;;;;5466863;25;20355;-64
2024/04/19 04:39:45;;;;;;;;;;;;;;;;;;5481741;26;19936;-64
2024/04/19 04:42:10;;;;;;;;;;;;;;;;;;5480081;26;19939;-65
2024/04/19 04:44:35;;;;;;;;;;;;;;;;;;5480876;26;20254;-64
2024/04/19 04:47:00;;;;;;;;;;;;;;;;;;5468778;25;19928;-64
2024/04/19 04:49:25;;;;;;;;;;;;;;;;;;5443715;26;20003;-64
2024/04/19 04:51:51;;;;;;;;;;;;;;;;;;5479268;26;20357;-64
2024/04/19 04:54:16;;;;;;;;;;;;;;;;;;5479306;25;19927;-64
2024/04/19 04:56:41;;;;;;;;;;;;;;;;;;5482906;25;19927;-65
2024/04/19 04:59:06;;;;;;;;;;;;;;;;;;5481015;25;19940;-64
2024/04/19 05:01:31;;;;;;;;;;;;;;;;;;5461501;25;20506;-64
2024/04/19 05:03:56;;;;;;;;;;;;;;;;;;5473573;25;19928;-64
2024/04/19 05:06:21;;;;;;;;;;;;;;;;;;5454011;25;19932;-65
2024/04/19 05:08:46;;;;;;;;;;;;;;;;;;5481487;26;19935;-65
2024/04/19 05:11:12;;;;;;;;;;;;;;;;;;5475003;25;20293;-65
2024/04/19 05:13:37;;;;;;;;;;;;;;;;;;5452376;25;19995;-65
2024/04/19 05:16:02;;;;;;;;;;;;;;;;;;5473204;25;19928;-65
2024/04/19 05:18:27;;;;;;;;;;;;;;;;;;5453207;26;19928;-65
2024/04/19 05:20:52;;;;;;;;;;;;;;;;;;5489687;25;19959;-65
2024/04/19 05:23:17;;;;;;;;;;;;;;;;;;5480974;25;19928;-65
2024/04/19 05:25:42;;;;;;;;;;;;;;;;;;5480210;25;19943;-65
2024/04/19 05:28:07;;;;;;;;;;;;;;;;;;5461357;25;19952;-65
2024/04/19 05:30:32;;;;;;;;;;;;;;;;;;5479904;26;19960;-64
2024/04/19 05:32:57;;;;;;;;;;;;;;;;;;5480961;25;20023;-64
2024/04/19 05:35:22;;;;;;;;;;;;;;;;;;5484547;25;20298;-64
2024/04/19 05:37:48;;;;;;;;;;;;;;;;;;5457684;25;19934;-65
2024/04/19 05:40:13;;;;;;;;;;;;;;;;;;5438066;26;19932;-65
2024/04/19 05:42:38;;;;;;;;;;;;;;;;;;5443506;25;20695;-65
2024/04/19 05:45:03;;;;;;;;;;;;;;;;;;5438906;25;19978;-64
2024/04/19 05:47:28;;;;;;;;;;;;;;;;;;5431623;26;19928;-65
2024/04/19 05:49:53;;;;;;;;;;;;;;;;;;5438269;25;19942;-65
2024/04/19 05:52:18;;;;;;;;;;;;;;;;;;5425375;25;20393;-65
2024/04/19 05:54:43;;;;;;;;;;;;;;;;;;5435740;25;19937;-64
2024/04/19 05:57:08;;;;;;;;;;;;;;;;;;5428647;26;20409;-65
2024/04/19 05:59:33;;;;;;;;;;;;;;;;;;5434568;25;19997;-65
2024/04/19 06:02:00;;;;;;;;;;;;;;;;;;5473348;26;19928;-65
2024/04/19 06:04:25;;;;;;;;;;;;;;;;;;5474112;25;19995;-65
2024/04/19 06:06:50;;;;;;;;;;;;;;;;;;5454808;26;19936;-65
2024/04/19 06:09:15;;;;;;;;;;;;;;;;;;5467010;25;19929;-64
2024/04/19 06:11:40;;;;;;;;;;;;;;;;;;5466819;26;19928;-64
2024/04/19 06:14:05;;;;;;;;;;;;;;;;;;5446292;26;20501;-65
2024/04/19 06:16:30;;;;;;;;;;;;;;;;;;5440662;26;19999;-64
2024/04/19 06:18:55;;;;;;;;;;;;;;;;;;5444849;26;19928;-64
2024/04/19 06:21:20;;;;;;;;;;;;;;;;;;5452381;26;20245;-64
2024/04/19 06:23:46;;;;;;;;;;;;;;;;;;5476558;26;19941;-64
2024/04/19 06:26:11;;;;;;;;;;;;;;;;;;5440506;26;20676;-65
2024/04/19 06:28:37;;;;;;;;;;;;;;;;;;5443013;26;19929;-65
2024/04/19 06:31:02;;;;;;;;;;;;;;;;;;5442755;26;19932;-65
2024/04/19 06:33:27;;;;;;;;;;;;;;;;;;5441457;26;19936;-66
2024/04/19 06:35:52;;;;;;;;;;;;;;;;;;5442499;26;19929;-66
2024/04/19 06:38:17;;;;;;;;;;;;;;;;;;5442879;26;19929;-67
2024/04/19 06:40:44;;;;;;;;;;;;;;;;;;5441048;26;19940;-67
2024/04/19 06:43:09;;;;;;;;;;;;;;;;;;5443360;26;21382;-67
2024/04/19 06:45:37;;;;;;;;;;;;;;;;;;5438177;26;20001;-68
2024/04/19 06:48:02;;;;;;;;;;;;;;;;;;5442826;26;19937;-67
2024/04/19 06:50:27;;;;;;;;;;;;;;;;;;5443148;26;19957;-67
2024/04/19 06:52:52;;;;;;;;;;;;;;;;;;5443528;26;19997;-66
2024/04/19 06:55:17;;;;;;;;;;;;;;;;;;5442516;26;19928;-67
2024/04/19 06:57:42;;;;;;;;;;;;;;;;;;5439449;26;19960;-67
2024/04/19 07:00:07;;;;;;;;;;;;;;;;;;5440092;26;19929;-67
2024/04/19 07:02:32;;;;;;;;;;;;;;;;;;5439928;26;20377;-67
2024/04/19 07:04:57;;;;;;;;;;;;;;;;;;5435374;26;19936;-67
2024/04/19 07:07:22;;;;;;;;;;;;;;;;;;5437692;26;19944;-67
2024/04/19 07:09:48;;;;;;;;;;;;;;;;;;5427126;26;19937;-67
2024/04/19 07:12:13;;;;;;;;;;;;;;;;;;5441494;26;20269;-67
2024/04/19 07:14:38;;;;;;;;;;;;;;;;;;5436981;26;19929;-68
2024/04/19 07:17:03;;;;;;;;;;;;;;;;;;5441321;26;19940;-68
2024/04/19 07:19:28;;;;;;;;;;;;;;;;;;5437975;26;19929;-67
2024/04/19 07:21:53;;;;;;;;;;;;;;;;;;5449378;26;20346;-67
2024/04/19 07:24:18;;;;;;;;;;;;;;;;;;5472241;26;20301;-68
2024/04/19 07:26:43;;;;;;;;;;;;;;;;;;5477806;25;19934;-68
2024/04/19 07:29:09;;;;;;;;;;;;;;;;;;5471578;25;19936;-68
2024/04/19 07:31:34;;;;;;;;;;;;;;;;;;5471837;26;19928;-68
2024/04/19 07:33:59;;;;;;;;;;;;;;;;;;5481048;25;19934;-68
2024/04/19 07:36:24;;;;;;;;;;;;;;;;;;5480758;25;19996;-68
2024/04/19 07:38:49;;;;;;;;;;;;;;;;;;5481859;25;19928;-67
2024/04/19 07:41:14;;;;;;;;;;;;;;;;;;5455873;25;19943;-67
2024/04/19 07:43:39;;;;;;;;;;;;;;;;;;5468247;26;20358;-68
2024/04/19 07:46:04;;;;;;;;;;;;;;;;;;5490558;26;19960;-67
2024/04/19 07:48:29;;;;;;;;;;;;;;;;;;5490648;25;19943;-67
2024/04/19 07:50:54;;;;;;;;;;;;;;;;;;5479273;25;19934;-68
2024/04/19 07:53:22;;;;;;;;;;;;;;;;;;5469328;26;19964;-67
2024/04/19 07:55:47;;;;;;;;;;;;;;;;;;5500534;25;20253;-67
2024/04/19 07:58:12;;;;;;;;;;;;;;;;;;5465749;25;20431;-68
2024/04/19 08:00:37;;;;;;;;;;;;;;;;;;5469713;25;20382;-68
2024/04/19 08:08:29;;;;;;;;;;;;;;;;;;5459467;25;19934;-67
2024/04/19 08:10:55;;;;;;;;;;;;;;;;;;5456549;25;19950;-67
2024/04/19 08:13:20;;;;;;;;;;;;;;;;;;5456924;26;20319;-67
2024/04/19 08:15:45;;;;;;;;;;;;;;;;;;5465732;26;19928;-67
2024/04/19 08:18:10;;;;;;;;;;;;;;;;;;5461822;25;19928;-68
2024/04/19 08:20:35;;;;;;;;;;;;;;;;;;5476898;25;20337;-67
2024/04/19 08:23:00;;;;;;;;;;;;;;;;;;5463945;25;20355;-67
2024/04/19 08:25:25;;;;;;;;;;;;;;;;;;5452484;26;20385;-67
2024/04/19 08:27:52;;;;;;;;;;;;;;;;;;5462459;26;19996;-67
2024/04/19 08:30:17;;;;;;;;;;;;;;;;;;5469160;25;19928;-68
2024/04/19 08:32:42;;;;;;;;;;;;;;;;;;5459938;25;19927;-67
2024/04/19 08:35:07;;;;;;;;;;;;;;;;;;5468476;26;19928;-67
2024/04/19 08:37:33;;;;;;;;;;;;;;;;;;5469205;26;19943;-67
2024/04/19 08:39:59;;;;;;;;;;;;;;;;;;5476121;26;20274;-68
2024/04/19 08:42:24;;;;;;;;;;;;;;;;;;5469298;26;19928;-67
2024/04/19 08:44:49;;;;;;;;;;;;;;;;;;5472209;26;19935;-68
2024/04/19 08:47:15;;;;;;;;;;;;;;;;;;5476015;26;19938;-68
2024/04/19 08:49:40;;;;;;;;;;;;;;;;;;5503997;25;19927;-68
2024/04/19 08:52:05;;;;;;;;;;;;;;;;;;5478156;26;19942;-68
2024/04/19 08:54:33;;;;;;;;;;;;;;;;;;5477273;26;19935;-67
2024/04/19 08:56:58;;;;;;;;;;;;;;;;;;5492144;26;19940;-67
2024/04/19 08:59:23;;;;;;;;;;;;;;;;;;5468054;26;19996;-67
2024/04/19 09:01:48;;;;;;;;;;;;;;;;;;5442251;26;19957;-67
2024/04/19 09:04:13;;;;;;;;;;;;;;;;;;5434538;26;20204;-67
2024/04/19 09:06:39;;;;;;;;;;;;;;;;;;5469779;26;20403;-67
2024/04/19 09:09:04;;;;;;;;;;;;;;;;;;5490889;25;19928;-67
2024/04/19 09:11:29;;;;;;;;;;;;;;;;;;5465310;26;19956;-67
2024/04/19 09:13:54;;;;;;;;;;;;;;;;;;5480363;26;19928;-67
2024/04/19 09:16:19;;;;;;;;;;;;;;;;;;5475932;25;19939;-67
2024/04/19 09:18:44;;;;;;;;;;;;;;;;;;5465407;25;19928;-67
2024/04/19 09:21:09;;;;;;;;;;;;;;;;;;5477730;25;19928;-67
2024/04/19 09:23:34;;;;;;;;;;;;;;;;;;5462497;26;20342;-67
2024/04/19 09:25:59;;;;;;;;;;;;;;;;;;5477455;26;19936;-67
2024/04/19 09:28:25;;;;;;;;;;;;;;;;;;5463055;25;19928;-67
2024/04/19 09:30:52;;;;;;;;;;;;;;;;;;5472721;25;19932;-67
2024/04/19 09:33:17;;;;;;;;;;;;;;;;;;5462366;26;20481;-68
2024/04/19 09:35:42;;;;;;;;;;;;;;;;;;5477627;26;19928;-68
2024/04/19 09:38:08;;;;;;;;;;;;;;;;;;5473986;25;19931;-68
2024/04/19 09:40:34;;;;;;;;;;;;;;;;;;5463848;25;20436;-68
2024/04/19 09:42:59;;;;;;;;;;;;;;;;;;5475770;25;19928;-67
2024/04/19 09:45:24;;;;;;;;;;;;;;;;;;5459787;26;19940;-67
2024/04/19 09:47:49;;;;;;;;;;;;;;;;;;5468047;26;19939;-67
2024/04/19 09:50:14;;;;;;;;;;;;;;;;;;5460824;25;20370;-68
2024/04/19 09:52:39;;;;;;;;;;;;;;;;;;5454440;25;19936;-67
2024/04/19 09:55:04;;;;;;;;;;;;;;;;;;5441845;25;19936;-68
2024/04/19 09:57:29;;;;;;;;;;;;;;;;;;5457915;25;19937;-67
2024/04/19 09:59:56;;;;;;;;;;;;;;;;;;5464030;26;19928;-67
2024/04/19 10:02:21;;;;;;;;;;;;;;;;;;5438669;26;19939;-67
2024/04/19 10:04:46;;;;;;;;;;;;;;;;;;5433523;26;19973;-67
2024/04/19 10:07:11;;;;;;;;;;;;;;;;;;5416692;26;19937;-67
2024/04/19 10:09:37;;;;;;;;;;;;;;;;;;5422701;26;20011;-67
2024/04/19 10:12:02;;;;;;;;;;;;;;;;;;5437190;26;19929;-68
2024/04/19 10:14:29;;;;;;;;;;;;;;;;;;5414651;26;20247;-67
2024/04/19 10:16:54;;;;;;;;;;;;;;;;;;5441156;26;19936;-67
2024/04/19 10:19:19;;;;;;;;;;;;;;;;;;5433284;26;19929;-67
2024/04/19 10:21:44;;;;;;;;;;;;;;;;;;5423401;26;19997;-67
2024/04/19 10:24:10;;;;;;;;;;;;;;;;;;5424830;26;20014;-67
2024/04/19 10:26:35;;;;;;;;;;;;;;;;;;5449643;26;20313;-67
2024/04/19 10:29:00;;;;;;;;;;;;;;;;;;5458428;26;19963;-67
2024/04/19 10:31:25;;;;;;;;;;;;;;;;;;5454040;26;19936;-67
2024/04/19 10:33:50;;;;;;;;;;;;;;;;;;5474215;26;19935;-67
2024/04/19 10:36:15;;;;;;;;;;;;;;;;;;5475808;25;19938;-67
2024/04/19 10:38:40;;;;;;;;;;;;;;;;;;5465331;25;20283;-67
2024/04/19 10:41:05;;;;;;;;;;;;;;;;;;5471030;25;19928;-67
2024/04/19 10:43:31;;;;;;;;;;;;;;;;;;5478957;25;19984;-67
2024/04/19 10:45:56;;;;;;;;;;;;;;;;;;5477704;25;19939;-67
2024/04/19 10:48:21;;;;;;;;;;;;;;;;;;5443599;26;19994;-67
2024/04/19 10:50:47;;;;;;;;;;;;;;;;;;5456402;26;19928;-67
2024/04/19 10:53:12;;;;;;;;;;;;;;;;;;5463399;25;19961;-67
2024/04/19 10:55:38;;;;;;;;;;;;;;;;;;5463829;26;19928;-67
2024/04/19 10:58:03;;;;;;;;;;;;;;;;;;5465580;26;20002;-67
2024/04/19 11:00:28;;;;;;;;;;;;;;;;;;5483998;25;19928;-66
2024/04/19 11:02:53;;;;;;;;;;;;;;;;;;5475427;25;20439;-66
2024/04/19 11:05:18;;;;;;;;;;;;;;;;;;5478031;26;20448;-66
2024/04/19 11:07:43;;;;;;;;;;;;;;;;;;5477454;25;19927;-66
2024/04/19 11:10:09;;;;;;;;;;;;;;;;;;5470588;26;19932;-66
2024/04/19 11:12:34;;;;;;;;;;;;;;;;;;5482612;26;19996;-66
2024/04/19 11:15:00;;;;;;;;;;;;;;;;;;5474587;26;19928;-66
2024/04/19 11:17:25;;;;;;;;;;;;;;;;;;5506941;25;20371;-66
2024/04/19 11:19:50;;;;;;;;;;;;;;;;;;5461535;26;19928;-66
2024/04/19 11:22:15;;;;;;;;;;;;;;;;;;5475465;25;19928;-67
2024/04/19 11:24:40;;;;;;;;;;;;;;;;;;5485917;25;20681;-66
2024/04/19 11:27:05;;;;;;;;;;;;;;;;;;5456226;26;19937;-66
2024/04/19 11:29:30;;;;;;;;;;;;;;;;;;5461896;26;19940;-66
2024/04/19 11:31:55;;;;;;;;;;;;;;;;;;5472756;26;20256;-66
2024/04/19 11:34:20;;;;;;;;;;;;;;;;;;5491011;25;19928;-66
2024/04/19 11:36:46;;;;;;;;;;;;;;;;;;5474097;25;19932;-66
2024/04/19 11:39:14;;;;;;;;;;;;;;;;;;5486660;25;19995;-66
2024/04/19 11:41:39;;;;;;;;;;;;;;;;;;5484902;25;19928;-66
2024/04/19 11:44:05;;;;;;;;;;;;;;;;;;5455698;25;20347;-67
2024/04/19 11:46:30;;;;;;;;;;;;;;;;;;5454705;26;19928;-66
2024/04/19 11:48:55;;;;;;;;;;;;;;;;;;5451065;26;19986;-66
2024/04/19 11:51:20;;;;;;;;;;;;;;;;;;5472189;26;19934;-66
2024/04/19 11:53:45;;;;;;;;;;;;;;;;;;5479388;26;20284;-66
2024/04/19 11:56:10;;;;;;;;;;;;;;;;;;5460734;26;19928;-65
2024/04/19 11:58:35;;;;;;;;;;;;;;;;;;5461994;26;19953;-64
2024/04/19 12:01:00;;;;;;;;;;;;;;;;;;5457065;26;19938;-65
2024/04/19 12:03:26;;;;;;;;;;;;;;;;;;5444386;26;19928;-66
2024/04/19 12:05:51;;;;;;;;;;;;;;;;;;5432008;26;20347;-65
2024/04/19 12:08:16;;;;;;;;;;;;;;;;;;5434053;26;20343;-65
2024/04/19 12:10:41;;;;;;;;;;;;;;;;;;5437525;26;20004;-66
2024/04/19 12:13:08;;;;;;;;;;;;;;;;;;5463399;26;19935;-66
2024/04/19 12:15:33;;;;;;;;;;;;;;;;;;5449876;26;19936;-66
2024/04/19 12:18:00;;;;;;;;;;;;;;;;;;5441202;26;19929;-65
2024/04/19 12:20:25;;;;;;;;;;;;;;;;;;5447276;26;19928;-65
2024/04/19 12:22:50;;;;;;;;;;;;;;;;;;5484029;26;20549;-65
2024/04/19 12:25:15;;;;;;;;;;;;;;;;;;5487552;26;19927;-66
2024/04/19 12:27:40;;;;;;;;;;;;;;;;;;5474094;25;19929;-65
2024/04/19 12:30:05;;;;;;;;;;;;;;;;;;5482086;26;19928;-67
2024/04/19 12:32:30;;;;;;;;;;;;;;;;;;5474086;25;19931;-65
2024/04/19 12:34:55;;;;;;;;;;;;;;;;;;5481247;26;19960;-66
2024/04/19 12:37:21;;;;;;;;;;;;;;;;;;5483979;26;19935;-65
2024/04/19 12:39:46;;;;;;;;;;;;;;;;;;5492292;26;20352;-65
2024/04/19 12:42:11;;;;;;;;;;;;;;;;;;5499551;25;19928;-66
2024/04/19 12:44:36;;;;;;;;;;;;;;;;;;5469270;26;19928;-66
2024/04/19 12:47:01;;;;;;;;;;;;;;;;;;5468015;25;20258;-65
2024/04/19 12:49:26;;;;;;;;;;;;;;;;;;5475386;25;19929;-66
2024/04/19 12:51:54;;;;;;;;;;;;;;;;;;5472187;26;19928;-67
2024/04/19 12:54:19;;;;;;;;;;;;;;;;;;5473396;25;20594;-65
2024/04/19 12:56:44;;;;;;;;;;;;;;;;;;5471158;26;20302;-65
2024/04/19 12:59:10;;;;;;;;;;;;;;;;;;5477263;26;20356;-65
2024/04/19 13:01:35;;;;;;;;;;;;;;;;;;5460546;25;19935;-67
2024/04/19 13:04:00;;;;;;;;;;;;;;;;;;5466453;25;19960;-67
2024/04/19 13:06:25;;;;;;;;;;;;;;;;;;5473827;25;19948;-67
2024/04/19 13:08:51;;;;;;;;;;;;;;;;;;5498447;25;19998;-66
2024/04/19 13:11:16;;;;;;;;;;;;;;;;;;5465666;25;19932;-66
2024/04/19 13:13:41;;;;;;;;;;;;;;;;;;5449849;25;19935;-66
2024/04/19 13:16:06;;;;;;;;;;;;;;;;;;5471105;25;20292;-67
2024/04/19 13:18:31;;;;;;;;;;;;;;;;;;5484972;26;20369;-66
2024/04/19 13:20:56;;;;;;;;;;;;;;;;;;5473689;26;19935;-65
2024/04/19 13:23:22;;;;;;;;;;;;;;;;;;5462671;26;19936;-66
2024/04/19 13:25:47;;;;;;;;;;;;;;;;;;5485985;25;20388;-66
2024/04/19 13:28:12;;;;;;;;;;;;;;;;;;5471087;26;19936;-66
2024/04/19 13:30:37;;;;;;;;;;;;;;;;;;5476446;26;20053;-66
2024/04/19 13:33:02;;;;;;;;;;;;;;;;;;5467569;26;19997;-66
2024/04/19 13:35:27;;;;;;;;;;;;;;;;;;5469913;26;19951;-67
2024/04/19 13:37:53;;;;;;;;;;;;;;;;;;5480266;26;19928;-67
2024/04/19 13:43:02;;;;;;;;;;;;;;;;;;5445138;26;20376;-66
2024/04/19 13:45:27;;;;;;;;;;;;;;;;;;5465085;26;19932;-66
2024/04/19 13:47:52;;;;;;;;;;;;;;;;;;5471550;25;19936;-66
2024/04/19 13:50:17;;;;;;;;;;;;;;;;;;5470153;25;19947;-65
2024/04/19 13:52:42;;;;;;;;;;;;;;;;;;5454069;26;20312;-66
2024/04/19 13:55:08;;;;;;;;;;;;;;;;;;5475572;26;20400;-66
2024/04/19 13:57:33;;;;;;;;;;;;;;;;;;5476907;26;19947;-65
2024/04/19 13:59:58;;;;;;;;;;;;;;;;;;5470329;26;19943;-66
2024/04/19 14:02:23;;;;;;;;;;;;;;;;;;5466381;26;19946;-66
2024/04/19 14:04:48;;;;;;;;;;;;;;;;;;5477426;25;19928;-66
2024/04/19 14:07:13;;;;;;;;;;;;;;;;;;5467839;25;19928;-66
2024/04/19 14:09:39;;;;;;;;;;;;;;;;;;5465249;26;19977;-67
2024/04/19 14:12:04;;;;;;;;;;;;;;;;;;5445321;26;19928;-66
2024/04/19 14:14:29;;;;;;;;;;;;;;;;;;5465096;26;19933;-65
2024/04/19 14:16:54;;;;;;;;;;;;;;;;;;5426551;26;19928;-65
2024/04/19 14:19:22;;;;;;;;;;;;;;;;;;5432746;26;19928;-66
2024/04/19 14:21:47;;;;;;;;;;;;;;;;;;5436356;26;19941;-65
2024/04/19 14:24:12;;;;;;;;;;;;;;;;;;5437702;26;19933;-66
2024/04/19 14:26:37;;;;;;;;;;;;;;;;;;5464747;25;20338;-66
2024/04/19 14:29:02;;;;;;;;;;;;;;;;;;5433305;26;20000;-65
2024/04/19 14:31:27;;;;;;;;;;;;;;;;;;5442573;26;20386;-66
2024/04/19 14:33:52;;;;;;;;;;;;;;;;;;5463970;26;20036;-67
2024/04/19 14:36:17;;;;;;;;;;;;;;;;;;5485028;25;20227;-66
2024/04/19 14:38:43;;;;;;;;;;;;;;;;;;5477613;25;19960;-65
2024/04/19 14:41:08;;;;;;;;;;;;;;;;;;5465121;25;20268;-66
2024/04/19 14:43:40;;;;;;;;;;;;;;;;;;5469246;25;20471;-66
2024/04/19 14:46:07;;;;;;;;;;;;;;;;;;5453654;25;19940;-66
2024/04/19 14:48:33;;;;;;;;;;;;;;;;;;5459654;26;19932;-66
2024/04/19 14:50:58;;;;;;;;;;;;;;;;;;5454259;26;19932;-65
2024/04/19 14:53:23;;;;;;;;;;;;;;;;;;5458485;26;19935;-65
2024/04/19 14:55:48;;;;;;;;;;;;;;;;;;5475092;26;19929;-66
2024/04/19 14:58:14;;;;;;;;;;;;;;;;;;5478012;26;19928;-66
2024/04/19 15:00:39;;;;;;;;;;;;;;;;;;5475337;26;19936;-65
2024/04/19 15:03:04;;;;;;;;;;;;;;;;;;5477164;25;20363;-65
2024/04/19 15:05:29;;;;;;;;;;;;;;;;;;5474611;25;19938;-66
2024/04/19 15:07:54;;;;;;;;;;;;;;;;;;5483759;26;19977;-65
2024/04/19 15:10:20;;;;;;;;;;;;;;;;;;5457280;25;19961;-66
2024/04/19 15:12:45;;;;;;;;;;;;;;;;;;5495794;26;19936;-65
2024/04/19 15:15:11;;;;;;;;;;;;;;;;;;5474021;26;19939;-65
2024/04/19 15:17:36;;;;;;;;;;;;;;;;;;5468663;26;20443;-66
2024/04/19 15:20:01;;;;;;;;;;;;;;;;;;5477806;26;19947;-66
2024/04/19 15:22:26;;;;;;;;;;;;;;;;;;5483776;26;20257;-65
2024/04/19 15:24:51;;;;;;;;;;;;;;;;;;5468178;26;19928;-65
2024/04/19 15:27:16;;;;;;;;;;;;;;;;;;5464797;26;20390;-66
2024/04/19 15:29:42;;;;;;;;;;;;;;;;;;5425225;26;19937;-65
2024/04/19 15:32:07;;;;;;;;;;;;;;;;;;5412041;26;19937;-65
2024/04/19 15:34:33;;;;;;;;;;;;;;;;;;5455257;26;20710;-65
2024/04/19 15:36:58;;;;;;;;;;;;;;;;;;5488486;26;19927;-65
2024/04/19 15:39:23;;;;;;;;;;;;;;;;;;5478165;25;20330;-65
2024/04/19 15:41:48;;;;;;;;;;;;;;;;;;5472802;25;19939;-65
2024/04/19 15:44:13;;;;;;;;;;;;;;;;;;5462503;25;19999;-66
2024/04/19 15:46:40;;;;;;;;;;;;;;;;;;5450182;26;19928;-65
2024/04/19 15:49:05;;;;;;;;;;;;;;;;;;5471377;25;19928;-65
2024/04/19 15:51:31;;;;;;;;;;;;;;;;;;5492256;25;20008;-66
2024/04/19 15:53:57;;;;;;;;;;;;;;;;;;5485200;25;19952;-66
2024/04/19 15:56:22;;;;;;;;;;;;;;;;;;5466461;25;19935;-65
2024/04/19 15:58:47;;;;;;;;;;;;;;;;;;5473751;26;19940;-65
2024/04/19 16:01:12;;;;;;;;;;;;;;;;;;5477843;25;20519;-65
2024/04/19 16:03:37;;;;;;;;;;;;;;;;;;5458646;25;19929;-66
2024/04/19 16:06:03;;;;;;;;;;;;;;;;;;5449372;25;19932;-65
2024/04/19 16:08:28;;;;;;;;;;;;;;;;;;5473328;26;19951;-65
2024/04/19 16:10:54;;;;;;;;;;;;;;;;;;5453254;26;19928;-65
2024/04/19 16:13:19;;;;;;;;;;;;;;;;;;5452072;26;19936;-64
2024/04/19 16:15:44;;;;;;;;;;;;;;;;;;5468854;26;19934;-65
2024/04/19 16:18:09;;;;;;;;;;;;;;;;;;5475059;26;19939;-65
2024/04/19 16:20:34;;;;;;;;;;;;;;;;;;5455157;26;19956;-65
2024/04/19 16:22:59;;;;;;;;;;;;;;;;;;5451042;25;20368;-65
2024/04/19 16:25:24;;;;;;;;;;;;;;;;;;5455062;25;20432;-65
2024/04/19 16:27:49;;;;;;;;;;;;;;;;;;5449118;25;19928;-65
2024/04/19 16:30:15;;;;;;;;;;;;;;;;;;5449817;25;19928;-65
2024/04/19 16:32:40;;;;;;;;;;;;;;;;;;5448065;26;19928;-67
2024/04/19 16:35:05;;;;;;;;;;;;;;;;;;5458928;26;19932;-66
2024/04/19 16:37:30;;;;;;;;;;;;;;;;;;5447243;26;20006;-67
2024/04/19 16:39:56;;;;;;;;;;;;;;;;;;5469603;26;20658;-66
2024/04/19 16:42:22;;;;;;;;;;;;;;;;;;5462157;25;19934;-67